高雄國際航空站 - 塔台/地面席

METAR RCKH 232000Z 06002KT 4000 BR FEW013 SCT025 BKN080 18/16 Q1020 NOSIG RMK A3012(F)=

站台狀態:Online
最後更新:2020-02-24 04:00:04